sensor_id;sensor_type;location;lat;lon;timestamp;pressure;altitude;pressure_sealevel;temperature;humidity
81511;BME280;70931;48.796;8.440;2023-07-13T00:01:32;97280.50;;;18.21;63.95
81511;BME280;70931;48.796;8.440;2023-07-13T00:03:57;97282.72;;;18.31;62.67
81511;BME280;70931;48.796;8.440;2023-07-13T00:06:23;97283.41;;;18.20;63.59
81511;BME280;70931;48.796;8.440;2023-07-13T00:08:48;97286.03;;;18.02;63.78
81511;BME280;70931;48.796;8.440;2023-07-13T00:11:14;97290.31;;;17.72;64.54
81511;BME280;70931;48.796;8.440;2023-07-13T00:13:40;97294.13;;;17.44;65.79
81511;BME280;70931;48.796;8.440;2023-07-13T00:16:06;97289.31;;;17.59;65.84
81511;BME280;70931;48.796;8.440;2023-07-13T00:18:31;97299.69;;;17.62;65.21
81511;BME280;70931;48.796;8.440;2023-07-13T00:20:57;97289.13;;;17.54;64.98
81511;BME280;70931;48.796;8.440;2023-07-13T00:23:22;97288.50;;;17.52;64.97
81511;BME280;70931;48.796;8.440;2023-07-13T00:25:48;97272.00;;;17.80;64.62
81511;BME280;70931;48.796;8.440;2023-07-13T00:28:13;97284.50;;;17.75;64.04
81511;BME280;70931;48.796;8.440;2023-07-13T00:30:38;97287.19;;;17.75;64.75
81511;BME280;70931;48.796;8.440;2023-07-13T00:33:03;97281.63;;;17.70;63.63
81511;BME280;70931;48.796;8.440;2023-07-13T00:35:30;97280.00;;;17.49;65.28
81511;BME280;70931;48.796;8.440;2023-07-13T00:37:56;97268.44;;;17.29;66.36
81511;BME280;70931;48.796;8.440;2023-07-13T00:40:21;97270.53;;;17.20;65.75
81511;BME280;70931;48.796;8.440;2023-07-13T00:42:46;97274.66;;;17.29;65.88
81511;BME280;70931;48.796;8.440;2023-07-13T00:47:40;97277.66;;;16.82;67.38
81511;BME280;70931;48.796;8.440;2023-07-13T00:50:08;97281.19;;;16.76;67.97
81511;BME280;70931;48.796;8.440;2023-07-13T00:52:35;97286.38;;;16.58;68.50
81511;BME280;70931;48.796;8.440;2023-07-13T00:55:01;97279.31;;;16.50;69.22
81511;BME280;70931;48.796;8.440;2023-07-13T00:57:26;97278.88;;;16.46;67.76
81511;BME280;70931;48.796;8.440;2023-07-13T00:59:57;97276.81;;;16.48;68.94
81511;BME280;70931;48.796;8.440;2023-07-13T01:02:24;97268.97;;;16.53;68.71
81511;BME280;70931;48.796;8.440;2023-07-13T01:04:50;97269.38;;;16.77;67.14
81511;BME280;70931;48.796;8.440;2023-07-13T01:07:16;97269.59;;;16.69;68.13
81511;BME280;70931;48.796;8.440;2023-07-13T01:09:41;97266.06;;;16.62;68.00
81511;BME280;70931;48.796;8.440;2023-07-13T01:12:07;97270.19;;;16.38;68.05
81511;BME280;70931;48.796;8.440;2023-07-13T01:14:32;97272.03;;;16.31;68.63
81511;BME280;70931;48.796;8.440;2023-07-13T01:16:58;97273.03;;;16.10;69.62
81511;BME280;70931;48.796;8.440;2023-07-13T01:19:33;97280.28;;;16.03;69.39
81511;BME280;70931;48.796;8.440;2023-07-13T01:22:00;97275.00;;;15.69;70.26
81511;BME280;70931;48.796;8.440;2023-07-13T01:24:25;97269.59;;;15.62;71.02
81511;BME280;70931;48.796;8.440;2023-07-13T01:26:50;97275.81;;;15.63;71.47
81511;BME280;70931;48.796;8.440;2023-07-13T01:29:16;97270.44;;;15.63;71.37
81511;BME280;70931;48.796;8.440;2023-07-13T01:31:41;97278.09;;;15.66;70.96
81511;BME280;70931;48.796;8.440;2023-07-13T01:34:06;97278.28;;;15.64;71.44
81511;BME280;70931;48.796;8.440;2023-07-13T01:36:31;97265.88;;;15.63;71.16
81511;BME280;70931;48.796;8.440;2023-07-13T01:38:56;97265.09;;;15.69;71.12
81511;BME280;70931;48.796;8.440;2023-07-13T01:41:22;97266.34;;;15.80;69.94
81511;BME280;70931;48.796;8.440;2023-07-13T01:43:47;97269.22;;;15.72;70.19
81511;BME280;70931;48.796;8.440;2023-07-13T01:46:12;97271.03;;;15.65;70.68
81511;BME280;70931;48.796;8.440;2023-07-13T01:48:37;97275.38;;;15.59;71.04
81511;BME280;70931;48.796;8.440;2023-07-13T01:51:03;97274.84;;;15.43;71.73
81511;BME280;70931;48.796;8.440;2023-07-13T01:53:28;97266.97;;;15.34;72.06
81511;BME280;70931;48.796;8.440;2023-07-13T01:55:53;97267.63;;;15.43;71.31
81511;BME280;70931;48.796;8.440;2023-07-13T01:58:18;97267.91;;;15.55;70.13
81511;BME280;70931;48.796;8.440;2023-07-13T02:00:44;97268.53;;;15.57;70.08
81511;BME280;70931;48.796;8.440;2023-07-13T02:03:09;97265.69;;;15.30;70.98
81511;BME280;70931;48.796;8.440;2023-07-13T02:05:34;97263.75;;;15.11;71.67
81511;BME280;70931;48.796;8.440;2023-07-13T02:08:00;97277.19;;;15.11;72.18
81511;BME280;70931;48.796;8.440;2023-07-13T02:10:25;97258.53;;;15.03;72.85
81511;BME280;70931;48.796;8.440;2023-07-13T02:12:50;97266.88;;;15.15;71.72
81511;BME280;70931;48.796;8.440;2023-07-13T02:15:16;97258.59;;;15.16;71.61
81511;BME280;70931;48.796;8.440;2023-07-13T02:17:42;97260.28;;;15.17;71.47
81511;BME280;70931;48.796;8.440;2023-07-13T02:20:07;97258.94;;;15.00;72.16
81511;BME280;70931;48.796;8.440;2023-07-13T02:22:33;97262.19;;;14.89;72.60
81511;BME280;70931;48.796;8.440;2023-07-13T02:24:58;97259.63;;;14.81;73.19
81511;BME280;70931;48.796;8.440;2023-07-13T02:27:23;97256.06;;;14.74;73.44
81511;BME280;70931;48.796;8.440;2023-07-13T02:29:49;97262.91;;;14.76;73.13
81511;BME280;70931;48.796;8.440;2023-07-13T02:32:14;97256.31;;;14.79;73.46
81511;BME280;70931;48.796;8.440;2023-07-13T02:34:40;97246.91;;;14.96;72.84
81511;BME280;70931;48.796;8.440;2023-07-13T02:37:06;97254.25;;;15.15;72.50
81511;BME280;70931;48.796;8.440;2023-07-13T02:39:31;97258.38;;;15.11;71.91
81511;BME280;70931;48.796;8.440;2023-07-13T02:41:56;97259.94;;;14.99;71.50
81511;BME280;70931;48.796;8.440;2023-07-13T02:44:21;97257.28;;;14.99;71.46
81511;BME280;70931;48.796;8.440;2023-07-13T02:46:47;97261.22;;;14.69;72.80
81511;BME280;70931;48.796;8.440;2023-07-13T02:49:12;97261.59;;;14.66;73.13
81511;BME280;70931;48.796;8.440;2023-07-13T02:51:37;97257.00;;;14.60;73.64
81511;BME280;70931;48.796;8.440;2023-07-13T02:54:03;97265.69;;;14.62;73.81
81511;BME280;70931;48.796;8.440;2023-07-13T02:56:31;97267.75;;;14.60;73.68
81511;BME280;70931;48.796;8.440;2023-07-13T02:58:57;97259.84;;;14.52;73.79
81511;BME280;70931;48.796;8.440;2023-07-13T03:01:23;97271.69;;;14.64;73.38
81511;BME280;70931;48.796;8.440;2023-07-13T03:03:49;97273.50;;;14.57;73.76
81511;BME280;70931;48.796;8.440;2023-07-13T03:06:16;97269.38;;;14.61;73.98
81511;BME280;70931;48.796;8.440;2023-07-13T03:08:41;97275.13;;;14.58;73.83
81511;BME280;70931;48.796;8.440;2023-07-13T03:11:12;97277.72;;;14.66;72.95
81511;BME280;70931;48.796;8.440;2023-07-13T03:13:39;97281.72;;;14.55;73.68
81511;BME280;70931;48.796;8.440;2023-07-13T03:16:05;97275.28;;;14.50;73.74
81511;BME280;70931;48.796;8.440;2023-07-13T03:18:30;97284.63;;;14.33;74.78
81511;BME280;70931;48.796;8.440;2023-07-13T03:20:55;97275.69;;;14.25;74.65
81511;BME280;70931;48.796;8.440;2023-07-13T03:23:22;97276.59;;;14.33;75.31
81511;BME280;70931;48.796;8.440;2023-07-13T03:25:48;97288.06;;;14.26;74.56
81511;BME280;70931;48.796;8.440;2023-07-13T03:28:14;97288.84;;;14.20;74.78
81511;BME280;70931;48.796;8.440;2023-07-13T03:30:39;97296.84;;;14.35;74.74
81511;BME280;70931;48.796;8.440;2023-07-13T03:33:05;97295.38;;;14.33;73.86
81511;BME280;70931;48.796;8.440;2023-07-13T03:35:30;97300.16;;;14.37;74.23
81511;BME280;70931;48.796;8.440;2023-07-13T03:37:55;97298.78;;;14.26;74.10
81511;BME280;70931;48.796;8.440;2023-07-13T03:40:20;97302.25;;;14.20;74.78
81511;BME280;70931;48.796;8.440;2023-07-13T03:42:46;97299.72;;;14.34;74.15
81511;BME280;70931;48.796;8.440;2023-07-13T03:45:12;97288.88;;;14.27;73.51
81511;BME280;70931;48.796;8.440;2023-07-13T03:47:37;97306.19;;;14.24;74.51
81511;BME280;70931;48.796;8.440;2023-07-13T03:50:02;97301.22;;;14.21;74.80
81511;BME280;70931;48.796;8.440;2023-07-13T03:52:28;97310.56;;;14.25;74.51
81511;BME280;70931;48.796;8.440;2023-07-13T03:54:53;97304.53;;;14.23;73.92
81511;BME280;70931;48.796;8.440;2023-07-13T03:57:18;97301.00;;;14.38;73.55
81511;BME280;70931;48.796;8.440;2023-07-13T03:59:43;97302.34;;;14.48;73.57
81511;BME280;70931;48.796;8.440;2023-07-13T04:02:09;97309.41;;;14.56;73.39
81511;BME280;70931;48.796;8.440;2023-07-13T04:04:34;97302.88;;;14.65;72.07
81511;BME280;70931;48.796;8.440;2023-07-13T04:07:00;97308.72;;;14.47;72.63
81511;BME280;70931;48.796;8.440;2023-07-13T04:09:25;97304.16;;;14.26;73.69
81511;BME280;70931;48.796;8.440;2023-07-13T04:11:51;97312.78;;;14.22;74.03
81511;BME280;70931;48.796;8.440;2023-07-13T04:14:16;97318.72;;;14.17;74.38
81511;BME280;70931;48.796;8.440;2023-07-13T04:16:42;97317.56;;;14.26;74.11
81511;BME280;70931;48.796;8.440;2023-07-13T04:19:08;97312.47;;;14.32;73.64
81511;BME280;70931;48.796;8.440;2023-07-13T04:21:33;97306.16;;;14.39;73.07
81511;BME280;70931;48.796;8.440;2023-07-13T04:23:59;97305.31;;;14.60;72.94
81511;BME280;70931;48.796;8.440;2023-07-13T04:26:24;97313.63;;;14.65;71.97
81511;BME280;70931;48.796;8.440;2023-07-13T04:28:50;97320.13;;;14.56;72.57
81511;BME280;70931;48.796;8.440;2023-07-13T04:31:16;97316.69;;;14.41;73.28
81511;BME280;70931;48.796;8.440;2023-07-13T04:33:42;97314.88;;;14.26;72.84
81511;BME280;70931;48.796;8.440;2023-07-13T04:36:08;97316.84;;;14.18;74.04
81511;BME280;70931;48.796;8.440;2023-07-13T04:38:34;97318.03;;;14.09;74.69
81511;BME280;70931;48.796;8.440;2023-07-13T04:41:04;97327.19;;;14.21;73.84
81511;BME280;70931;48.796;8.440;2023-07-13T04:43:30;97326.00;;;14.23;73.79
81511;BME280;70931;48.796;8.440;2023-07-13T04:45:56;97329.00;;;14.14;73.80
81511;BME280;70931;48.796;8.440;2023-07-13T04:48:22;97328.28;;;14.05;74.25
81511;BME280;70931;48.796;8.440;2023-07-13T04:50:53;97333.66;;;14.05;73.80
81511;BME280;70931;48.796;8.440;2023-07-13T04:53:19;97333.56;;;13.99;75.26
81511;BME280;70931;48.796;8.440;2023-07-13T04:55:44;97327.41;;;14.19;74.30
81511;BME280;70931;48.796;8.440;2023-07-13T04:58:09;97332.03;;;14.47;73.93
81511;BME280;70931;48.796;8.440;2023-07-13T05:00:34;97333.78;;;14.54;72.56
81511;BME280;70931;48.796;8.440;2023-07-13T05:03:00;97336.38;;;14.48;73.04
81511;BME280;70931;48.796;8.440;2023-07-13T05:05:26;97340.47;;;14.44;73.29
81511;BME280;70931;48.796;8.440;2023-07-13T05:07:52;97333.78;;;14.54;72.92
81511;BME280;70931;48.796;8.440;2023-07-13T05:10:18;97337.41;;;14.47;73.58
81511;BME280;70931;48.796;8.440;2023-07-13T05:12:43;97325.41;;;14.43;74.89
81511;BME280;70931;48.796;8.440;2023-07-13T05:15:09;97337.63;;;14.73;73.39
81511;BME280;70931;48.796;8.440;2023-07-13T05:17:34;97335.19;;;14.78;72.84
81511;BME280;70931;48.796;8.440;2023-07-13T05:19:59;97338.38;;;14.88;72.55
81511;BME280;70931;48.796;8.440;2023-07-13T05:22:25;97348.09;;;14.89;73.07
81511;BME280;70931;48.796;8.440;2023-07-13T05:24:50;97339.97;;;15.10;71.72
81511;BME280;70931;48.796;8.440;2023-07-13T05:27:15;97344.88;;;15.00;71.45
81511;BME280;70931;48.796;8.440;2023-07-13T05:29:41;97336.47;;;14.82;73.37
81511;BME280;70931;48.796;8.440;2023-07-13T05:32:06;97338.69;;;15.00;72.40
81511;BME280;70931;48.796;8.440;2023-07-13T05:34:31;97340.91;;;14.96;72.71
81511;BME280;70931;48.796;8.440;2023-07-13T05:36:57;97331.19;;;14.95;73.28
81511;BME280;70931;48.796;8.440;2023-07-13T05:39:22;97338.47;;;15.01;73.93
81511;BME280;70931;48.796;8.440;2023-07-13T05:41:48;97347.19;;;15.03;73.50
81511;BME280;70931;48.796;8.440;2023-07-13T05:44:13;97343.41;;;14.98;74.02
81511;BME280;70931;48.796;8.440;2023-07-13T05:46:38;97344.09;;;15.06;73.28
81511;BME280;70931;48.796;8.440;2023-07-13T05:49:03;97352.00;;;15.14;73.80
81511;BME280;70931;48.796;8.440;2023-07-13T05:51:29;97361.53;;;15.17;72.89
81511;BME280;70931;48.796;8.440;2023-07-13T05:53:54;97360.53;;;15.24;73.34
81511;BME280;70931;48.796;8.440;2023-07-13T05:56:20;97366.34;;;15.28;72.94
81511;BME280;70931;48.796;8.440;2023-07-13T05:58:45;97359.31;;;15.27;71.49
81511;BME280;70931;48.796;8.440;2023-07-13T06:01:12;97365.50;;;15.27;73.04
81511;BME280;70931;48.796;8.440;2023-07-13T06:03:38;97367.81;;;15.30;73.35
81511;BME280;70931;48.796;8.440;2023-07-13T06:06:08;97367.03;;;15.36;72.94
81511;BME280;70931;48.796;8.440;2023-07-13T06:08:34;97367.53;;;15.47;72.69
81511;BME280;70931;48.796;8.440;2023-07-13T06:11:09;97367.22;;;15.63;71.69
81511;BME280;70931;48.796;8.440;2023-07-13T06:13:36;97366.81;;;15.66;71.41
81511;BME280;70931;48.796;8.440;2023-07-13T06:16:02;97370.22;;;15.81;71.17
81511;BME280;70931;48.796;8.440;2023-07-13T06:18:27;97375.19;;;15.84;71.64
81511;BME280;70931;48.796;8.440;2023-07-13T06:20:52;97369.84;;;15.97;70.01
81511;BME280;70931;48.796;8.440;2023-07-13T06:23:18;97369.28;;;16.15;70.83
81511;BME280;70931;48.796;8.440;2023-07-13T06:25:43;97370.34;;;16.20;70.52
81511;BME280;70931;48.796;8.440;2023-07-13T06:28:08;97379.44;;;16.19;70.45
81511;BME280;70931;48.796;8.440;2023-07-13T06:30:34;97375.09;;;16.25;68.54
81511;BME280;70931;48.796;8.440;2023-07-13T06:32:59;97376.19;;;16.37;68.13
81511;BME280;70931;48.796;8.440;2023-07-13T06:35:24;97382.81;;;16.34;68.00
81511;BME280;70931;48.796;8.440;2023-07-13T06:37:49;97379.28;;;16.34;67.57
81511;BME280;70931;48.796;8.440;2023-07-13T06:40:15;97383.03;;;16.39;67.51
81511;BME280;70931;48.796;8.440;2023-07-13T06:42:40;97392.78;;;16.47;67.46
81511;BME280;70931;48.796;8.440;2023-07-13T06:45:06;97386.94;;;16.37;67.49
81511;BME280;70931;48.796;8.440;2023-07-13T06:47:31;97389.47;;;16.51;65.71
81511;BME280;70931;48.796;8.440;2023-07-13T06:49:57;97385.56;;;16.54;65.95
81511;BME280;70931;48.796;8.440;2023-07-13T06:52:22;97391.38;;;16.58;66.80
81511;BME280;70931;48.796;8.440;2023-07-13T06:54:47;97392.84;;;16.67;65.73
81511;BME280;70931;48.796;8.440;2023-07-13T06:57:13;97390.16;;;16.73;64.89
81511;BME280;70931;48.796;8.440;2023-07-13T06:59:38;97378.34;;;16.68;65.17
81511;BME280;70931;48.796;8.440;2023-07-13T07:02:04;97394.94;;;16.78;64.93
81511;BME280;70931;48.796;8.440;2023-07-13T07:04:29;97397.00;;;16.89;64.50
81511;BME280;70931;48.796;8.440;2023-07-13T07:06:54;97396.59;;;16.85;65.47
81511;BME280;70931;48.796;8.440;2023-07-13T07:09:19;97391.00;;;16.93;65.22
81511;BME280;70931;48.796;8.440;2023-07-13T07:11:45;97398.28;;;16.93;65.13
81511;BME280;70931;48.796;8.440;2023-07-13T07:14:10;97394.94;;;16.91;64.45
81511;BME280;70931;48.796;8.440;2023-07-13T07:16:35;97389.16;;;17.07;63.27
81511;BME280;70931;48.796;8.440;2023-07-13T07:19:00;97394.53;;;17.00;64.11
81511;BME280;70931;48.796;8.440;2023-07-13T07:21:26;97401.78;;;17.06;63.54
81511;BME280;70931;48.796;8.440;2023-07-13T07:23:51;97398.06;;;17.14;64.13
81511;BME280;70931;48.796;8.440;2023-07-13T07:26:17;97399.69;;;17.28;63.11
81511;BME280;70931;48.796;8.440;2023-07-13T07:28:42;97407.38;;;17.38;63.61
81511;BME280;70931;48.796;8.440;2023-07-13T07:31:08;97406.53;;;17.44;62.47
81511;BME280;70931;48.796;8.440;2023-07-13T07:33:33;97394.50;;;17.53;61.33
81511;BME280;70931;48.796;8.440;2023-07-13T07:35:59;97402.38;;;17.68;59.59
81511;BME280;70931;48.796;8.440;2023-07-13T07:38:24;97398.56;;;17.88;60.91
81511;BME280;70931;48.796;8.440;2023-07-13T07:40:49;97396.28;;;17.92;60.52
81511;BME280;70931;48.796;8.440;2023-07-13T07:43:15;97399.75;;;18.12;54.98
81511;BME280;70931;48.796;8.440;2023-07-13T07:45:40;97403.72;;;18.47;55.56
81511;BME280;70931;48.796;8.440;2023-07-13T07:48:06;97410.72;;;18.68;51.34
81511;BME280;70931;48.796;8.440;2023-07-13T07:50:31;97419.25;;;18.96;49.78
81511;BME280;70931;48.796;8.440;2023-07-13T07:52:57;97414.56;;;19.10;50.54
81511;BME280;70931;48.796;8.440;2023-07-13T07:55:22;97412.84;;;19.15;52.56
81511;BME280;70931;48.796;8.440;2023-07-13T07:57:48;97414.00;;;19.26;50.26
81511;BME280;70931;48.796;8.440;2023-07-13T08:00:14;97419.34;;;19.39;50.46
81511;BME280;70931;48.796;8.440;2023-07-13T08:02:40;97420.59;;;19.61;49.72
81511;BME280;70931;48.796;8.440;2023-07-13T08:05:06;97419.47;;;19.69;47.54
81511;BME280;70931;48.796;8.440;2023-07-13T08:07:31;97426.06;;;20.16;45.46
81511;BME280;70931;48.796;8.440;2023-07-13T08:09:56;97426.50;;;20.49;48.31
81511;BME280;70931;48.796;8.440;2023-07-13T08:12:21;97421.72;;;20.92;47.63
81511;BME280;70931;48.796;8.440;2023-07-13T08:14:49;97427.88;;;21.52;48.22
81511;BME280;70931;48.796;8.440;2023-07-13T08:17:15;97438.38;;;22.19;42.05
81511;BME280;70931;48.796;8.440;2023-07-13T08:19:41;97430.66;;;22.79;38.64
81511;BME280;70931;48.796;8.440;2023-07-13T08:22:06;97420.28;;;23.37;36.10
81511;BME280;70931;48.796;8.440;2023-07-13T08:24:31;97425.56;;;24.10;39.80
81511;BME280;70931;48.796;8.440;2023-07-13T08:26:56;97424.16;;;24.73;35.55
81511;BME280;70931;48.796;8.440;2023-07-13T08:29:22;97422.06;;;25.33;35.43
81511;BME280;70931;48.796;8.440;2023-07-13T08:31:48;97426.78;;;25.75;35.01
81511;BME280;70931;48.796;8.440;2023-07-13T08:34:13;97426.03;;;25.79;33.21
81511;BME280;70931;48.796;8.440;2023-07-13T08:36:38;97425.72;;;25.76;33.15
81511;BME280;70931;48.796;8.440;2023-07-13T08:39:03;97430.41;;;26.17;31.48
81511;BME280;70931;48.796;8.440;2023-07-13T08:41:29;97433.19;;;26.32;31.47
81511;BME280;70931;48.796;8.440;2023-07-13T08:43:58;97435.47;;;26.50;31.75
81511;BME280;70931;48.796;8.440;2023-07-13T08:46:28;97432.28;;;26.69;30.14
81511;BME280;70931;48.796;8.440;2023-07-13T08:49:09;97427.38;;;26.81;31.48
81511;BME280;70931;48.796;8.440;2023-07-13T08:54:19;97446.09;;;27.24;31.70
81511;BME280;70931;48.796;8.440;2023-07-13T08:56:46;97434.66;;;27.72;31.12
81511;BME280;70931;48.796;8.440;2023-07-13T08:59:16;97440.13;;;28.08;30.26
81511;BME280;70931;48.796;8.440;2023-07-13T09:07:44;97456.88;;;28.11;28.51
81511;BME280;70931;48.796;8.440;2023-07-13T09:13:16;97436.69;;;28.66;28.24
81511;BME280;70931;48.796;8.440;2023-07-13T09:15:47;97426.38;;;28.28;28.92
81511;BME280;70931;48.796;8.440;2023-07-13T09:18:40;97439.34;;;28.87;29.12
81511;BME280;70931;48.796;8.440;2023-07-13T09:21:13;97440.38;;;29.01;29.41
81511;BME280;70931;48.796;8.440;2023-07-13T09:23:40;97435.75;;;27.82;30.36
81511;BME280;70931;48.796;8.440;2023-07-13T09:26:19;97433.19;;;29.05;29.89
81511;BME280;70931;48.796;8.440;2023-07-13T09:28:47;97432.88;;;29.55;28.85
81511;BME280;70931;48.796;8.440;2023-07-13T09:31:17;97430.38;;;29.92;28.24
81511;BME280;70931;48.796;8.440;2023-07-13T09:33:44;97429.00;;;29.61;27.05
81511;BME280;70931;48.796;8.440;2023-07-13T09:36:18;97435.84;;;29.98;26.23
81511;BME280;70931;48.796;8.440;2023-07-13T09:38:44;97440.22;;;30.51;26.01
81511;BME280;70931;48.796;8.440;2023-07-13T09:41:26;97444.97;;;30.69;25.74
81511;BME280;70931;48.796;8.440;2023-07-13T09:44:31;97434.78;;;31.12;25.32
81511;BME280;70931;48.796;8.440;2023-07-13T09:46:58;97446.84;;;31.35;24.55
81511;BME280;70931;48.796;8.440;2023-07-13T09:49:29;97442.47;;;31.71;23.83
81511;BME280;70931;48.796;8.440;2023-07-13T09:52:21;97434.59;;;30.85;25.42
81511;BME280;70931;48.796;8.440;2023-07-13T09:54:49;97437.75;;;31.72;24.96
81511;BME280;70931;48.796;8.440;2023-07-13T09:57:18;97445.56;;;31.46;24.24
81511;BME280;70931;48.796;8.440;2023-07-13T09:59:46;97436.28;;;31.60;26.03
81511;BME280;70931;48.796;8.440;2023-07-13T10:04:57;97445.31;;;32.58;22.46
81511;BME280;70931;48.796;8.440;2023-07-13T10:07:24;97450.34;;;32.69;21.95
81511;BME280;70931;48.796;8.440;2023-07-13T10:09:55;97436.78;;;32.13;21.74
81511;BME280;70931;48.796;8.440;2023-07-13T10:12:21;97438.56;;;32.64;23.09
81511;BME280;70931;48.796;8.440;2023-07-13T10:14:47;97433.66;;;32.88;22.04
81511;BME280;70931;48.796;8.440;2023-07-13T10:17:14;97447.78;;;32.73;21.13
81511;BME280;70931;48.796;8.440;2023-07-13T10:19:41;97438.94;;;33.25;22.13
81511;BME280;70931;48.796;8.440;2023-07-13T10:24:36;97442.59;;;34.54;20.63
81511;BME280;70931;48.796;8.440;2023-07-13T10:27:15;97434.75;;;34.48;20.12
81511;BME280;70931;48.796;8.440;2023-07-13T10:32:13;97440.56;;;33.26;20.76
81511;BME280;70931;48.796;8.440;2023-07-13T10:34:40;97437.50;;;33.86;19.57
81511;BME280;70931;48.796;8.440;2023-07-13T10:37:57;97444.06;;;34.12;20.56
81511;BME280;70931;48.796;8.440;2023-07-13T10:39:58;97441.47;;;34.24;19.97
81511;BME280;70931;48.796;8.440;2023-07-13T10:42:28;97440.94;;;33.92;20.31
81511;BME280;70931;48.796;8.440;2023-07-13T10:44:54;97442.25;;;34.47;18.13
81511;BME280;70931;48.796;8.440;2023-07-13T10:47:19;97432.00;;;34.87;18.10
81511;BME280;70931;48.796;8.440;2023-07-13T10:49:45;97428.88;;;33.30;19.72
81511;BME280;70931;48.796;8.440;2023-07-13T10:52:45;97453.41;;;32.68;19.53
81511;BME280;70931;48.796;8.440;2023-07-13T10:58:01;97426.84;;;33.57;19.34
81511;BME280;70931;48.796;8.440;2023-07-13T11:00:31;97432.31;;;33.49;20.41
81511;BME280;70931;48.796;8.440;2023-07-13T11:02:59;97428.00;;;32.93;20.45
81511;BME280;70931;48.796;8.440;2023-07-13T11:07:56;97429.72;;;32.07;21.80
81511;BME280;70931;48.796;8.440;2023-07-13T11:10:56;97431.69;;;33.52;20.53
81511;BME280;70931;48.796;8.440;2023-07-13T11:18:44;97441.66;;;32.62;20.40
81511;BME280;70931;48.796;8.440;2023-07-13T11:21:29;97451.16;;;32.56;18.94
81511;BME280;70931;48.796;8.440;2023-07-13T11:31:42;97434.69;;;31.73;20.93
81511;BME280;70931;48.796;8.440;2023-07-13T11:34:13;97435.22;;;32.07;19.22
81511;BME280;70931;48.796;8.440;2023-07-13T11:36:43;97427.91;;;32.17;19.91
81511;BME280;70931;48.796;8.440;2023-07-13T11:42:00;97431.59;;;31.24;22.35
81511;BME280;70931;48.796;8.440;2023-07-13T11:44:27;97430.63;;;31.71;20.99
81511;BME280;70931;48.796;8.440;2023-07-13T11:46:55;97426.63;;;30.83;22.66
81511;BME280;70931;48.796;8.440;2023-07-13T11:49:22;97447.09;;;31.57;22.86
81511;BME280;70931;48.796;8.440;2023-07-13T11:51:48;97422.06;;;33.13;20.48
81511;BME280;70931;48.796;8.440;2023-07-13T11:56:48;97436.47;;;32.15;20.25
81511;BME280;70931;48.796;8.440;2023-07-13T11:59:13;97437.88;;;32.86;20.77
81511;BME280;70931;48.796;8.440;2023-07-13T12:01:50;97437.56;;;32.74;19.06
81511;BME280;70931;48.796;8.440;2023-07-13T12:06:45;97429.13;;;32.38;20.32
81511;BME280;70931;48.796;8.440;2023-07-13T12:09:12;97431.38;;;32.36;20.93
81511;BME280;70931;48.796;8.440;2023-07-13T12:11:40;97432.69;;;31.60;21.95
81511;BME280;70931;48.796;8.440;2023-07-13T12:14:10;97435.13;;;30.63;22.72
81511;BME280;70931;48.796;8.440;2023-07-13T12:16:37;97428.19;;;30.47;23.51
81511;BME280;70931;48.796;8.440;2023-07-13T12:19:03;97435.88;;;30.92;22.81
81511;BME280;70931;48.796;8.440;2023-07-13T12:21:39;97435.72;;;31.77;22.17
81511;BME280;70931;48.796;8.440;2023-07-13T12:24:05;97430.94;;;32.01;21.59
81511;BME280;70931;48.796;8.440;2023-07-13T12:26:38;97425.16;;;32.44;20.73
81511;BME280;70931;48.796;8.440;2023-07-13T12:29:05;97404.28;;;32.10;20.42
81511;BME280;70931;48.796;8.440;2023-07-13T12:31:45;97422.91;;;31.54;21.37
81511;BME280;70931;48.796;8.440;2023-07-13T12:36:44;97431.03;;;29.84;23.24
81511;BME280;70931;48.796;8.440;2023-07-13T12:39:14;97425.50;;;29.79;24.72
81511;BME280;70931;48.796;8.440;2023-07-13T12:41:40;97431.28;;;30.12;24.05
81511;BME280;70931;48.796;8.440;2023-07-13T12:44:11;97430.19;;;29.50;25.25
81511;BME280;70931;48.796;8.440;2023-07-13T12:46:37;97436.47;;;30.18;24.88
81511;BME280;70931;48.796;8.440;2023-07-13T12:49:06;97428.91;;;31.19;23.92
81511;BME280;70931;48.796;8.440;2023-07-13T12:51:31;97428.84;;;31.42;23.03
81511;BME280;70931;48.796;8.440;2023-07-13T12:54:12;97434.66;;;30.32;24.04
81511;BME280;70931;48.796;8.440;2023-07-13T12:56:38;97436.66;;;29.64;26.18
81511;BME280;70931;48.796;8.440;2023-07-13T12:59:04;97434.84;;;29.50;26.42
81511;BME280;70931;48.796;8.440;2023-07-13T13:01:32;97437.09;;;30.34;24.02
81511;BME280;70931;48.796;8.440;2023-07-13T13:04:01;97419.09;;;29.60;24.79
81511;BME280;70931;48.796;8.440;2023-07-13T13:06:28;97425.03;;;29.72;25.43
81511;BME280;70931;48.796;8.440;2023-07-13T13:08:56;97424.75;;;29.74;24.31
81511;BME280;70931;48.796;8.440;2023-07-13T13:11:23;97438.47;;;28.96;25.28
81511;BME280;70931;48.796;8.440;2023-07-13T13:13:49;97431.28;;;28.36;26.68
81511;BME280;70931;48.796;8.440;2023-07-13T13:16:35;97425.78;;;28.36;25.17
81511;BME280;70931;48.796;8.440;2023-07-13T13:19:12;97417.63;;;28.21;26.23
81511;BME280;70931;48.796;8.440;2023-07-13T13:21:38;97417.09;;;30.00;25.06
81511;BME280;70931;48.796;8.440;2023-07-13T13:24:10;97421.44;;;31.38;23.67
81511;BME280;70931;48.796;8.440;2023-07-13T13:26:36;97414.59;;;32.19;21.95
81511;BME280;70931;48.796;8.440;2023-07-13T13:29:09;97417.72;;;32.58;21.24
81511;BME280;70931;48.796;8.440;2023-07-13T13:31:35;97410.94;;;32.64;20.77
81511;BME280;70931;48.796;8.440;2023-07-13T13:34:01;97424.06;;;30.68;22.35
81511;BME280;70931;48.796;8.440;2023-07-13T13:36:26;97424.88;;;30.45;23.16
81511;BME280;70931;48.796;8.440;2023-07-13T13:38:51;97433.88;;;30.56;23.89
81511;BME280;70931;48.796;8.440;2023-07-13T13:41:17;97413.44;;;29.80;24.04
81511;BME280;70931;48.796;8.440;2023-07-13T13:43:43;97413.72;;;30.31;23.31
81511;BME280;70931;48.796;8.440;2023-07-13T13:46:19;97414.41;;;30.47;23.51
81511;BME280;70931;48.796;8.440;2023-07-13T13:48:45;97418.91;;;31.23;22.58
81511;BME280;70931;48.796;8.440;2023-07-13T13:51:17;97416.09;;;30.43;23.05